Pagina principale
METAR-TAF:

METAR-TAF

Aeroporti :

Alice Springs, Australia

latitudine: 23-48S, longitudine: 133-53E, altezza: 545 m

Osservazione

Il bollettino è stato emesso 29 minuti fa, alle 08:00 UTC
Vento 11 kt da sud/sud-est
Temperature 23°C
Umidità 20%
Pressione 1021 hPa
Visibilità 10 km o più

METAR: YBAS 180800Z AUTO 16011KT 9999 // NCD 23/M01 Q1021 RF00.0/000.0 PRESENT WEATHER SENSOR US

Ora: 17:59 (08:29 UTC)

Previsione

Il bollettino è stato emesso 3 ore e 6 minuti fa, alle 05:23 UTC
Previsione valida dal 18 alle 06 UTC al 19 alle 06 UTC
Vento 12 kt da sud-est
Visibilità 10 km o più
nessuna nube inferiore a 1500 m e nessun cumulonembo
A partire da 19 alle 0000 UTC
Vento 16 kt da est/sud-est con raffiche fino a 26 kt
Visibilità 10 km o più
nessuna nube inferiore a 1500 m e nessun cumulonembo

TAF: YBAS 180523Z 1806/1906 14012KT CAVOK FM190000 12016G26KT CAVOK

Osservazioni e previsioni meteorologiche di più di 4000 aeroporti (messaggi METAR e TAF).

Le stazioni disponibili sono rappresentate dai dischi gialli e rossi sulla carta.

Puntare il mouse per vedere il nome della stazione.

Clicca sopra per visualizzare le osservazioni e previsioni meteorologiche.

Per cambiare la mappa : fare clic sui pulsanti verdi con una croce nera per ingrandire, il pulsante verde con un trattino per diminuire, o sulla freccia verde per le mappe adiacenti.


METAR-TAF: